sensor_id;sensor_type;location;lat;lon;timestamp;pressure;altitude;pressure_sealevel;temperature;humidity
1401;BME280;46518;48.842;8.926;2023-02-28T00:01:37;97804.00;;;-0.26;55.04
1401;BME280;46518;48.842;8.926;2023-02-28T00:04:05;97808.69;;;-0.22;54.89
1401;BME280;46518;48.842;8.926;2023-02-28T00:06:36;97806.91;;;-0.21;54.65
1401;BME280;46518;48.842;8.926;2023-02-28T00:09:04;97804.81;;;-0.26;55.09
1401;BME280;46518;48.842;8.926;2023-02-28T00:11:33;97815.13;;;-0.34;54.94
1401;BME280;46518;48.842;8.926;2023-02-28T00:14:03;97794.31;;;-0.32;55.25
1401;BME280;46518;48.842;8.926;2023-02-28T00:16:31;97805.44;;;-0.32;55.21
1401;BME280;46518;48.842;8.926;2023-02-28T00:18:59;97809.16;;;-0.34;55.14
1401;BME280;46518;48.842;8.926;2023-02-28T00:21:27;97804.47;;;-0.39;55.20
1401;BME280;46518;48.842;8.926;2023-02-28T00:23:56;97805.28;;;-0.38;55.48
1401;BME280;46518;48.842;8.926;2023-02-28T00:26:24;97808.97;;;-0.41;55.26
1401;BME280;46518;48.842;8.926;2023-02-28T00:28:54;97806.06;;;-0.38;55.51
1401;BME280;46518;48.842;8.926;2023-02-28T00:31:23;97802.66;;;-0.47;55.97
1401;BME280;46518;48.842;8.926;2023-02-28T00:33:51;97803.47;;;-0.46;55.65
1401;BME280;46518;48.842;8.926;2023-02-28T00:36:20;97801.53;;;-0.52;56.47
1401;BME280;46518;48.842;8.926;2023-02-28T00:38:48;97796.50;;;-0.54;57.07
1401;BME280;46518;48.842;8.926;2023-02-28T00:41:16;97805.06;;;-0.53;56.78
1401;BME280;46518;48.842;8.926;2023-02-28T00:43:46;97792.78;;;-0.59;57.08
1401;BME280;46518;48.842;8.926;2023-02-28T00:46:14;97795.38;;;-0.59;57.41
1401;BME280;46518;48.842;8.926;2023-02-28T00:48:43;97803.28;;;-0.61;57.82
1401;BME280;46518;48.842;8.926;2023-02-28T00:51:11;97794.72;;;-0.61;58.44
1401;BME280;46518;48.842;8.926;2023-02-28T00:53:39;97797.16;;;-0.60;58.34
1401;BME280;46518;48.842;8.926;2023-02-28T00:56:07;97789.41;;;-0.60;58.38
1401;BME280;46518;48.842;8.926;2023-02-28T00:58:35;97794.56;;;-0.60;58.21
1401;BME280;46518;48.842;8.926;2023-02-28T01:01:03;97798.75;;;-0.59;58.96
1401;BME280;46518;48.842;8.926;2023-02-28T01:03:32;97795.50;;;-0.61;58.72
1401;BME280;46518;48.842;8.926;2023-02-28T01:06:02;97802.31;;;-0.60;59.24
1401;BME280;46518;48.842;8.926;2023-02-28T01:08:30;97793.59;;;-0.59;58.88
1401;BME280;46518;48.842;8.926;2023-02-28T01:11:07;97791.31;;;-0.62;59.58
1401;BME280;46518;48.842;8.926;2023-02-28T01:13:36;97789.88;;;-0.56;59.52
1401;BME280;46518;48.842;8.926;2023-02-28T01:16:05;97791.47;;;-0.55;59.77
1401;BME280;46518;48.842;8.926;2023-02-28T01:18:34;97795.84;;;-0.56;59.32
1401;BME280;46518;48.842;8.926;2023-02-28T01:21:05;97786.50;;;-0.57;59.25
1401;BME280;46518;48.842;8.926;2023-02-28T01:23:33;97788.75;;;-0.62;60.11
1401;BME280;46518;48.842;8.926;2023-02-28T01:26:05;97783.25;;;-0.59;60.54
1401;BME280;46518;48.842;8.926;2023-02-28T01:28:33;97790.84;;;-0.57;60.43
1401;BME280;46518;48.842;8.926;2023-02-28T01:31:02;97787.91;;;-0.62;60.67
1401;BME280;46518;48.842;8.926;2023-02-28T01:33:31;97791.16;;;-0.60;60.75
1401;BME280;46518;48.842;8.926;2023-02-28T01:36:00;97786.44;;;-0.65;60.85
1401;BME280;46518;48.842;8.926;2023-02-28T01:38:29;97790.00;;;-0.66;60.97
1401;BME280;46518;48.842;8.926;2023-02-28T01:40:57;97790.50;;;-0.62;61.11
1401;BME280;46518;48.842;8.926;2023-02-28T01:43:27;97791.16;;;-0.60;61.04
1401;BME280;46518;48.842;8.926;2023-02-28T01:45:57;97791.28;;;-0.70;60.89
1401;BME280;46518;48.842;8.926;2023-02-28T01:48:27;97786.63;;;-0.67;61.18
1401;BME280;46518;48.842;8.926;2023-02-28T01:50:58;97794.53;;;-0.68;60.93
1401;BME280;46518;48.842;8.926;2023-02-28T01:53:32;97781.28;;;-0.65;61.39
1401;BME280;46518;48.842;8.926;2023-02-28T01:56:03;97782.91;;;-0.72;61.68
1401;BME280;46518;48.842;8.926;2023-02-28T01:58:34;97785.47;;;-0.72;61.17
1401;BME280;46518;48.842;8.926;2023-02-28T02:01:03;97782.06;;;-0.73;61.32
1401;BME280;46518;48.842;8.926;2023-02-28T02:03:32;97785.75;;;-0.83;61.73
1401;BME280;46518;48.842;8.926;2023-02-28T02:06:03;97773.63;;;-0.91;62.65
1401;BME280;46518;48.842;8.926;2023-02-28T02:08:33;97773.63;;;-0.83;62.50
1401;BME280;46518;48.842;8.926;2023-02-28T02:11:02;97775.06;;;-0.89;62.91
1401;BME280;46518;48.842;8.926;2023-02-28T02:13:44;97770.25;;;-0.83;62.26
1401;BME280;46518;48.842;8.926;2023-02-28T02:16:32;97764.94;;;-0.82;62.44
1401;BME280;46518;48.842;8.926;2023-02-28T02:19:14;97761.19;;;-0.88;63.76
1401;BME280;46518;48.842;8.926;2023-02-28T02:22:05;97758.94;;;-0.82;63.22
1401;BME280;46518;48.842;8.926;2023-02-28T02:25:07;97767.06;;;-0.77;63.07
1401;BME280;46518;48.842;8.926;2023-02-28T02:28:04;97758.31;;;-0.76;62.83
1401;BME280;46518;48.842;8.926;2023-02-28T02:31:01;97757.53;;;-0.77;63.02
1401;BME280;46518;48.842;8.926;2023-02-28T02:36:42;97758.00;;;-0.81;63.43
1401;BME280;46518;48.842;8.926;2023-02-28T02:39:19;97749.91;;;-0.87;63.57
1401;BME280;46518;48.842;8.926;2023-02-28T02:41:53;97758.44;;;-0.86;63.63
1401;BME280;46518;48.842;8.926;2023-02-28T02:44:25;97754.59;;;-0.82;64.21
1401;BME280;46518;48.842;8.926;2023-02-28T02:47:01;97765.53;;;-0.88;63.89
1401;BME280;46518;48.842;8.926;2023-02-28T02:49:32;97760.38;;;-0.88;64.09
1401;BME280;46518;48.842;8.926;2023-02-28T02:52:05;97753.91;;;-0.92;64.51
1401;BME280;46518;48.842;8.926;2023-02-28T02:54:38;97759.22;;;-0.94;64.87
1401;BME280;46518;48.842;8.926;2023-02-28T02:57:11;97757.47;;;-0.85;65.04
1401;BME280;46518;48.842;8.926;2023-02-28T02:59:41;97758.44;;;-0.86;65.14
1401;BME280;46518;48.842;8.926;2023-02-28T03:02:12;97754.88;;;-0.85;64.62
1401;BME280;46518;48.842;8.926;2023-02-28T03:04:43;97755.06;;;-0.87;65.04
1401;BME280;46518;48.842;8.926;2023-02-28T03:07:15;97756.00;;;-0.96;65.83
1401;BME280;46518;48.842;8.926;2023-02-28T03:09:50;97761.69;;;-0.92;65.79
1401;BME280;46518;48.842;8.926;2023-02-28T03:12:20;97759.09;;;-0.84;65.71
1401;BME280;46518;48.842;8.926;2023-02-28T03:14:56;97759.25;;;-0.85;65.76
1401;BME280;46518;48.842;8.926;2023-02-28T03:17:38;97762.03;;;-0.79;65.26
1401;BME280;46518;48.842;8.926;2023-02-28T03:20:17;97764.28;;;-0.84;66.15
1401;BME280;46518;48.842;8.926;2023-02-28T03:22:58;97757.78;;;-0.88;66.32
1401;BME280;46518;48.842;8.926;2023-02-28T03:25:33;97749.56;;;-0.83;66.35
1401;BME280;46518;48.842;8.926;2023-02-28T03:28:09;97759.44;;;-0.87;66.04
1401;BME280;46518;48.842;8.926;2023-02-28T03:30:47;97764.25;;;-0.92;67.03
1401;BME280;46518;48.842;8.926;2023-02-28T03:33:24;97761.69;;;-0.92;66.49
1401;BME280;46518;48.842;8.926;2023-02-28T03:35:56;97754.41;;;-0.89;66.90
1401;BME280;46518;48.842;8.926;2023-02-28T03:38:32;97751.16;;;-0.91;67.78
1401;BME280;46518;48.842;8.926;2023-02-28T03:41:05;97748.78;;;-0.84;67.17
1401;BME280;46518;48.842;8.926;2023-02-28T03:43:40;97761.53;;;-0.82;67.70
1401;BME280;46518;48.842;8.926;2023-02-28T03:46:11;97753.75;;;-0.82;67.56
1401;BME280;46518;48.842;8.926;2023-02-28T03:48:43;97752.50;;;-0.78;67.62
1401;BME280;46518;48.842;8.926;2023-02-28T03:51:16;97754.75;;;-0.83;68.12
1401;BME280;46518;48.842;8.926;2023-02-28T03:53:50;97758.97;;;-0.74;68.26
1401;BME280;46518;48.842;8.926;2023-02-28T03:56:21;97753.81;;;-0.74;67.75
1401;BME280;46518;48.842;8.926;2023-02-28T03:58:55;97741.38;;;-0.71;67.82
1401;BME280;46518;48.842;8.926;2023-02-28T04:01:28;97733.13;;;-0.74;67.97
1401;BME280;46518;48.842;8.926;2023-02-28T04:03:59;97743.47;;;-0.66;68.11
1401;BME280;46518;48.842;8.926;2023-02-28T04:06:30;97751.72;;;-0.62;67.49
1401;BME280;46518;48.842;8.926;2023-02-28T04:09:00;97748.97;;;-0.61;68.44
1401;BME280;46518;48.842;8.926;2023-02-28T04:11:32;97749.97;;;-0.62;67.71
1401;BME280;46518;48.842;8.926;2023-02-28T04:14:01;97753.03;;;-0.67;68.27
1401;BME280;46518;48.842;8.926;2023-02-28T04:16:30;97755.47;;;-0.57;68.18
1401;BME280;46518;48.842;8.926;2023-02-28T04:19:02;97748.97;;;-0.61;68.07
1401;BME280;46518;48.842;8.926;2023-02-28T04:21:34;97757.41;;;-0.59;68.64
1401;BME280;46518;48.842;8.926;2023-02-28T04:24:04;97753.84;;;-0.58;68.48
1401;BME280;46518;48.842;8.926;2023-02-28T04:26:34;97759.19;;;-0.51;68.71
1401;BME280;46518;48.842;8.926;2023-02-28T04:29:04;97753.88;;;-0.50;69.09
1401;BME280;46518;48.842;8.926;2023-02-28T04:31:32;97752.22;;;-0.51;69.21
1401;BME280;46518;48.842;8.926;2023-02-28T04:34:01;97756.59;;;-0.51;69.44
1401;BME280;46518;48.842;8.926;2023-02-28T04:36:29;97753.69;;;-0.48;69.80
1401;BME280;46518;48.842;8.926;2023-02-28T04:38:57;97749.66;;;-0.43;69.63
1401;BME280;46518;48.842;8.926;2023-02-28T04:41:26;97749.84;;;-0.44;70.14
1401;BME280;46518;48.842;8.926;2023-02-28T04:44:02;97733.47;;;-0.61;70.31
1401;BME280;46518;48.842;8.926;2023-02-28T04:46:31;97712.31;;;-0.64;70.74
1401;BME280;46518;48.842;8.926;2023-02-28T04:48:59;97734.13;;;-0.51;70.42
1401;BME280;46518;48.842;8.926;2023-02-28T04:51:28;97749.34;;;-0.39;70.10
1401;BME280;46518;48.842;8.926;2023-02-28T04:53:57;97744.66;;;-0.36;70.01
1401;BME280;46518;48.842;8.926;2023-02-28T04:56:27;97712.66;;;-0.51;69.74
1401;BME280;46518;48.842;8.926;2023-02-28T04:58:55;97721.53;;;-0.62;69.85
1401;BME280;46518;48.842;8.926;2023-02-28T05:01:26;97750.00;;;-0.37;70.11
1401;BME280;46518;48.842;8.926;2023-02-28T05:03:58;97748.03;;;-0.44;70.56
1401;BME280;46518;48.842;8.926;2023-02-28T05:06:30;97740.63;;;-0.47;70.37
1401;BME280;46518;48.842;8.926;2023-02-28T05:09:01;97716.38;;;-0.62;70.33
1401;BME280;46518;48.842;8.926;2023-02-28T05:11:33;97743.03;;;-0.45;70.18
1401;BME280;46518;48.842;8.926;2023-02-28T05:14:04;97740.63;;;-0.47;70.62
1401;BME280;46518;48.842;8.926;2023-02-28T05:16:33;97723.78;;;-0.59;70.19
1401;BME280;46518;48.842;8.926;2023-02-28T05:19:01;97736.25;;;-0.46;70.54
1401;BME280;46518;48.842;8.926;2023-02-28T05:21:32;97726.06;;;-0.56;70.69
1401;BME280;46518;48.842;8.926;2023-02-28T05:24:02;97727.50;;;-0.45;70.21
1401;BME280;46518;48.842;8.926;2023-02-28T05:26:34;97739.00;;;-0.39;70.10
1401;BME280;46518;48.842;8.926;2023-02-28T05:29:02;97730.41;;;-0.48;69.48
1401;BME280;46518;48.842;8.926;2023-02-28T05:31:32;97755.34;;;-0.39;69.97
1401;BME280;46518;48.842;8.926;2023-02-28T05:34:00;97725.56;;;-0.51;69.63
1401;BME280;46518;48.842;8.926;2023-02-28T05:36:31;97751.63;;;-0.36;69.28
1401;BME280;46518;48.842;8.926;2023-02-28T05:38:59;97729.16;;;-0.44;69.51
1401;BME280;46518;48.842;8.926;2023-02-28T05:41:30;97755.97;;;-0.20;69.08
1401;BME280;46518;48.842;8.926;2023-02-28T05:44:00;97739.34;;;-0.34;68.84
1401;BME280;46518;48.842;8.926;2023-02-28T05:46:28;97733.84;;;-0.39;68.71
1401;BME280;46518;48.842;8.926;2023-02-28T05:48:56;97731.41;;;-0.41;68.90
1401;BME280;46518;48.842;8.926;2023-02-28T05:51:27;97757.63;;;-0.19;69.31
1401;BME280;46518;48.842;8.926;2023-02-28T05:53:59;97719.75;;;-0.53;68.85
1401;BME280;46518;48.842;8.926;2023-02-28T05:56:28;97729.28;;;-0.54;68.70
1401;BME280;46518;48.842;8.926;2023-02-28T05:58:56;97746.13;;;-0.50;68.72
1401;BME280;46518;48.842;8.926;2023-02-28T06:01:32;97745.59;;;-0.45;69.05
1401;BME280;46518;48.842;8.926;2023-02-28T06:04:03;97726.84;;;-0.55;68.36
1401;BME280;46518;48.842;8.926;2023-02-28T06:06:32;97730.09;;;-0.53;68.94
1401;BME280;46518;48.842;8.926;2023-02-28T06:09:03;97735.91;;;-0.51;68.56
1401;BME280;46518;48.842;8.926;2023-02-28T06:11:32;97741.28;;;-0.45;69.08
1401;BME280;46518;48.842;8.926;2023-02-28T06:14:01;97741.75;;;-0.41;68.77
1401;BME280;46518;48.842;8.926;2023-02-28T06:16:33;97728.50;;;-0.54;68.70
1401;BME280;46518;48.842;8.926;2023-02-28T06:19:05;97743.38;;;-0.40;68.87
1401;BME280;46518;48.842;8.926;2023-02-28T06:21:33;97751.63;;;-0.45;68.64
1401;BME280;46518;48.842;8.926;2023-02-28T06:24:02;97731.88;;;-0.46;68.23
1401;BME280;46518;48.842;8.926;2023-02-28T06:26:31;97757.78;;;-0.37;68.93
1401;BME280;46518;48.842;8.926;2023-02-28T06:29:00;97760.66;;;-0.40;68.38
1401;BME280;46518;48.842;8.926;2023-02-28T06:31:33;97755.94;;;-0.45;68.45
1401;BME280;46518;48.842;8.926;2023-02-28T06:34:01;97754.03;;;-0.43;68.46
1401;BME280;46518;48.842;8.926;2023-02-28T06:36:29;97759.84;;;-0.41;68.47
1401;BME280;46518;48.842;8.926;2023-02-28T06:38:59;97773.63;;;-0.32;68.74
1401;BME280;46518;48.842;8.926;2023-02-28T06:41:27;97756.00;;;-0.37;68.67
1401;BME280;46518;48.842;8.926;2023-02-28T06:44:11;97779.91;;;-0.27;68.17
1401;BME280;46518;48.842;8.926;2023-02-28T06:46:42;97783.97;;;-0.24;68.34
1401;BME280;46518;48.842;8.926;2023-02-28T06:49:11;97775.41;;;-0.25;68.10
1401;BME280;46518;48.842;8.926;2023-02-28T06:51:41;97787.03;;;-0.20;68.43
1401;BME280;46518;48.842;8.926;2023-02-28T06:54:12;97770.53;;;-0.36;68.29
1401;BME280;46518;48.842;8.926;2023-02-28T06:56:40;97777.66;;;-0.30;68.57
1401;BME280;46518;48.842;8.926;2023-02-28T06:59:09;97778.63;;;-0.23;68.52
1401;BME280;46518;48.842;8.926;2023-02-28T07:01:38;97765.84;;;-0.32;68.75
1401;BME280;46518;48.842;8.926;2023-02-28T07:04:08;97785.75;;;-0.16;68.87
1401;BME280;46518;48.842;8.926;2023-02-28T07:06:36;97793.84;;;-0.11;68.71
1401;BME280;46518;48.842;8.926;2023-02-28T07:09:04;97770.56;;;-0.19;68.67
1401;BME280;46518;48.842;8.926;2023-02-28T07:11:34;97803.38;;;-0.04;68.28
1401;BME280;46518;48.842;8.926;2023-02-28T07:14:02;97809.84;;;-0.08;68.25
1401;BME280;46518;48.842;8.926;2023-02-28T07:16:30;97796.41;;;-0.11;68.06
1401;BME280;46518;48.842;8.926;2023-02-28T07:18:58;97795.44;;;-0.18;67.82
1401;BME280;46518;48.842;8.926;2023-02-28T07:21:28;97777.16;;;-0.33;68.09
1401;BME280;46518;48.842;8.926;2023-02-28T07:23:57;97798.34;;;-0.05;67.55
1401;BME280;46518;48.842;8.926;2023-02-28T07:26:26;97796.59;;;-0.05;67.49
1401;BME280;46518;48.842;8.926;2023-02-28T07:28:54;97780.91;;;-0.19;67.28
1401;BME280;46518;48.842;8.926;2023-02-28T07:31:22;97774.75;;;-0.18;67.25
1401;BME280;46518;48.842;8.926;2023-02-28T07:33:51;97793.34;;;-0.07;67.33
1401;BME280;46518;48.842;8.926;2023-02-28T07:36:20;97813.56;;;0.06;67.50
1401;BME280;46518;48.842;8.926;2023-02-28T07:38:50;97810.97;;;0.14;67.21
1401;BME280;46518;48.842;8.926;2023-02-28T07:41:19;97806.47;;;0.08;66.36
1401;BME280;46518;48.842;8.926;2023-02-28T07:43:48;97812.47;;;0.25;66.74
1401;BME280;46518;48.842;8.926;2023-02-28T07:46:17;97790.28;;;0.14;66.46
1401;BME280;46518;48.842;8.926;2023-02-28T07:48:48;97803.41;;;0.21;66.01
1401;BME280;46518;48.842;8.926;2023-02-28T07:51:16;97807.44;;;0.15;65.98
1401;BME280;46518;48.842;8.926;2023-02-28T07:53:44;97808.56;;;0.13;66.52
1401;BME280;46518;48.842;8.926;2023-02-28T07:56:14;97813.75;;;0.21;66.34
1401;BME280;46518;48.842;8.926;2023-02-28T07:58:42;97808.72;;;0.19;66.60
1401;BME280;46518;48.842;8.926;2023-02-28T08:01:11;97803.06;;;0.08;66.49
1401;BME280;46518;48.842;8.926;2023-02-28T08:03:40;97814.06;;;0.26;65.83
1401;BME280;46518;48.842;8.926;2023-02-28T08:06:16;97790.94;;;0.08;65.78
1401;BME280;46518;48.842;8.926;2023-02-28T08:08:44;97789.63;;;0.12;65.72
1401;BME280;46518;48.842;8.926;2023-02-28T08:11:14;97790.47;;;0.13;65.77
1401;BME280;46518;48.842;8.926;2023-02-28T08:13:43;97808.06;;;0.17;65.65
1401;BME280;46518;48.842;8.926;2023-02-28T08:16:12;97797.72;;;0.17;65.86
1401;BME280;46518;48.842;8.926;2023-02-28T08:18:44;97787.88;;;0.13;65.85
1401;BME280;46518;48.842;8.926;2023-02-28T08:21:13;97834.78;;;0.26;65.26
1401;BME280;46518;48.842;8.926;2023-02-28T08:23:41;97813.75;;;0.21;65.91
1401;BME280;46518;48.842;8.926;2023-02-28T08:26:09;97825.41;;;0.25;66.04
1401;BME280;46518;48.842;8.926;2023-02-28T08:28:39;97804.34;;;0.20;66.36
1401;BME280;46518;48.842;8.926;2023-02-28T08:31:09;97815.06;;;0.25;65.65
1401;BME280;46518;48.842;8.926;2023-02-28T08:33:37;97831.84;;;0.37;65.58
1401;BME280;46518;48.842;8.926;2023-02-28T08:36:07;97834.28;;;0.47;65.85
1401;BME280;46518;48.842;8.926;2023-02-28T08:38:37;97806.44;;;0.25;65.04
1401;BME280;46518;48.842;8.926;2023-02-28T08:41:07;97828.78;;;0.34;65.18
1401;BME280;46518;48.842;8.926;2023-02-28T08:43:36;97832.84;;;0.53;65.13
1401;BME280;46518;48.842;8.926;2023-02-28T08:46:06;97827.97;;;0.41;65.23
1401;BME280;46518;48.842;8.926;2023-02-28T08:48:35;97834.44;;;0.54;64.94
1401;BME280;46518;48.842;8.926;2023-02-28T08:51:06;97841.53;;;0.60;64.95
1401;BME280;46518;48.842;8.926;2023-02-28T08:53:36;97837.19;;;0.44;65.31
1401;BME280;46518;48.842;8.926;2023-02-28T08:56:07;97847.22;;;0.47;65.24
1401;BME280;46518;48.842;8.926;2023-02-28T08:58:36;97858.41;;;0.48;65.21
1401;BME280;46518;48.842;8.926;2023-02-28T09:01:11;97822.94;;;0.40;65.05
1401;BME280;46518;48.842;8.926;2023-02-28T09:03:41;97843.34;;;0.51;65.03
1401;BME280;46518;48.842;8.926;2023-02-28T09:06:12;97830.06;;;0.54;64.86
1401;BME280;46518;48.842;8.926;2023-02-28T09:08:40;97845.28;;;0.66;64.62
1401;BME280;46518;48.842;8.926;2023-02-28T09:11:09;97828.13;;;0.48;64.33
1401;BME280;46518;48.842;8.926;2023-02-28T09:13:38;97841.72;;;0.67;64.54
1401;BME280;46518;48.842;8.926;2023-02-28T09:16:12;97838.00;;;0.53;64.84
1401;BME280;46518;48.842;8.926;2023-02-28T09:18:42;97816.31;;;0.54;64.77
1401;BME280;46518;48.842;8.926;2023-02-28T09:21:12;97841.22;;;0.71;64.34
1401;BME280;46518;48.842;8.926;2023-02-28T09:23:41;97824.25;;;0.60;63.50
1401;BME280;46518;48.842;8.926;2023-02-28T09:26:13;97854.16;;;0.79;64.15
1401;BME280;46518;48.842;8.926;2023-02-28T09:28:42;97824.88;;;0.71;64.16
1401;BME280;46518;48.842;8.926;2023-02-28T09:31:14;97819.81;;;0.77;64.04
1401;BME280;46518;48.842;8.926;2023-02-28T09:33:43;97843.75;;;0.96;63.54
1401;BME280;46518;48.842;8.926;2023-02-28T09:36:11;97843.13;;;0.94;63.20
1401;BME280;46518;48.842;8.926;2023-02-28T09:38:39;97837.94;;;0.94;63.28
1401;BME280;46518;48.842;8.926;2023-02-28T09:41:13;97845.88;;;1.00;63.36
1401;BME280;46518;48.842;8.926;2023-02-28T09:43:45;97857.50;;;1.13;62.81
1401;BME280;46518;48.842;8.926;2023-02-28T09:46:26;97839.84;;;1.00;62.40
1401;BME280;46518;48.842;8.926;2023-02-28T09:48:55;97850.38;;;1.06;62.41
1401;BME280;46518;48.842;8.926;2023-02-28T09:51:34;97859.09;;;1.14;62.37
1401;BME280;46518;48.842;8.926;2023-02-28T09:54:05;97845.50;;;1.12;61.97
1401;BME280;46518;48.842;8.926;2023-02-28T09:56:39;97855.03;;;1.27;62.16
1401;BME280;46518;48.842;8.926;2023-02-28T09:59:14;97834.13;;;1.21;62.10
1401;BME280;46518;48.842;8.926;2023-02-28T10:01:53;97833.13;;;1.30;61.22
1401;BME280;46518;48.842;8.926;2023-02-28T10:04:38;97843.28;;;1.40;60.47
1401;BME280;46518;48.842;8.926;2023-02-28T10:07:18;97838.94;;;1.32;61.07
1401;BME280;46518;48.842;8.926;2023-02-28T10:09:53;97842.00;;;1.36;60.43
1401;BME280;46518;48.842;8.926;2023-02-28T10:12:23;97853.13;;;1.53;60.11
1401;BME280;46518;48.842;8.926;2023-02-28T10:14:55;97858.78;;;1.56;60.38
1401;BME280;46518;48.842;8.926;2023-02-28T10:17:32;97860.19;;;1.67;60.19
1401;BME280;46518;48.842;8.926;2023-02-28T10:20:22;97850.50;;;1.61;59.45
1401;BME280;46518;48.842;8.926;2023-02-28T10:23:00;97863.47;;;1.61;58.84
1401;BME280;46518;48.842;8.926;2023-02-28T10:25:36;97867.66;;;1.70;59.31
1401;BME280;46518;48.842;8.926;2023-02-28T10:28:11;97861.81;;;1.68;59.26
1401;BME280;46518;48.842;8.926;2023-02-28T10:30:42;97886.19;;;1.90;59.59
1401;BME280;46518;48.842;8.926;2023-02-28T10:33:18;97856.06;;;1.81;59.64
1401;BME280;46518;48.842;8.926;2023-02-28T10:35:49;97872.00;;;2.01;59.29
1401;BME280;46518;48.842;8.926;2023-02-28T10:38:20;97849.31;;;1.94;58.40
1401;BME280;46518;48.842;8.926;2023-02-28T10:40:48;97884.72;;;2.19;58.58
1401;BME280;46518;48.842;8.926;2023-02-28T10:43:23;97844.03;;;2.11;58.33
1401;BME280;46518;48.842;8.926;2023-02-28T10:45:56;97858.97;;;2.32;58.19
1401;BME280;46518;48.842;8.926;2023-02-28T10:48:32;97875.22;;;2.49;56.78
1401;BME280;46518;48.842;8.926;2023-02-28T10:51:01;97868.19;;;2.57;57.10
1401;BME280;46518;48.842;8.926;2023-02-28T10:53:38;97869.16;;;2.56;56.69
1401;BME280;46518;48.842;8.926;2023-02-28T10:56:26;97867.09;;;2.52;56.39
1401;BME280;46518;48.842;8.926;2023-02-28T10:58:57;97871.72;;;2.65;56.37
1401;BME280;46518;48.842;8.926;2023-02-28T11:01:35;97869.03;;;2.73;55.47
1401;BME280;46518;48.842;8.926;2023-02-28T11:04:18;97872.63;;;2.87;55.56
1401;BME280;46518;48.842;8.926;2023-02-28T11:06:56;97867.66;;;3.00;55.37
1401;BME280;46518;48.842;8.926;2023-02-28T11:09:30;97863.41;;;3.14;55.29
1401;BME280;46518;48.842;8.926;2023-02-28T11:11:59;97858.94;;;3.08;54.11
1401;BME280;46518;48.842;8.926;2023-02-28T11:14:30;97856.97;;;3.10;54.45
1401;BME280;46518;48.842;8.926;2023-02-28T11:17:11;97862.00;;;3.26;55.22
1401;BME280;46518;48.842;8.926;2023-02-28T11:19:45;97861.44;;;3.31;54.43
1401;BME280;46518;48.842;8.926;2023-02-28T11:22:18;97859.84;;;3.30;53.45
1401;BME280;46518;48.842;8.926;2023-02-28T11:24:49;97860.13;;;3.35;53.61
1401;BME280;46518;48.842;8.926;2023-02-28T11:27:40;97849.97;;;3.40;53.56
1401;BME280;46518;48.842;8.926;2023-02-28T11:30:24;97852.56;;;3.55;53.12
1401;BME280;46518;48.842;8.926;2023-02-28T11:37:48;97854.91;;;3.50;52.18
1401;BME280;46518;48.842;8.926;2023-02-28T11:40:18;97861.72;;;3.51;52.39
1401;BME280;46518;48.842;8.926;2023-02-28T11:43:05;97851.56;;;3.56;52.68
1401;BME280;46518;48.842;8.926;2023-02-28T11:45:44;97856.91;;;3.69;52.08
1401;BME280;46518;48.842;8.926;2023-02-28T11:48:20;97851.69;;;3.69;52.56
1401;BME280;46518;48.842;8.926;2023-02-28T11:50:57;97843.47;;;3.65;52.25
1401;BME280;46518;48.842;8.926;2023-02-28T11:54:11;97849.44;;;3.81;52.16
1401;BME280;46518;48.842;8.926;2023-02-28T11:56:46;97846.28;;;3.85;51.94
1401;BME280;46518;48.842;8.926;2023-02-28T11:59:30;97843.81;;;3.99;52.00
1401;BME280;46518;48.842;8.926;2023-02-28T12:02:22;97844.38;;;3.94;52.16
1401;BME280;46518;48.842;8.926;2023-02-28T12:05:05;97841.59;;;4.17;51.67
1401;BME280;46518;48.842;8.926;2023-02-28T12:07:44;97835.72;;;4.30;52.08
1401;BME280;46518;48.842;8.926;2023-02-28T12:10:21;97840.72;;;4.31;51.00
1401;BME280;46518;48.842;8.926;2023-02-28T12:13:04;97838.66;;;4.48;50.97
1401;BME280;46518;48.842;8.926;2023-02-28T12:18:52;97838.56;;;4.63;50.18
1401;BME280;46518;48.842;8.926;2023-02-28T12:21:27;97828.13;;;4.85;49.92
1401;BME280;46518;48.842;8.926;2023-02-28T12:24:07;97832.16;;;4.94;49.78
1401;BME280;46518;48.842;8.926;2023-02-28T12:26:42;97829.41;;;5.02;48.90
1401;BME280;46518;48.842;8.926;2023-02-28T12:29:15;97830.09;;;5.17;49.24
1401;BME280;46518;48.842;8.926;2023-02-28T12:31:48;97828.88;;;5.13;48.98
1401;BME280;46518;48.842;8.926;2023-02-28T12:34:20;97819.31;;;5.27;48.35
1401;BME280;46518;48.842;8.926;2023-02-28T12:36:52;97817.81;;;5.11;48.55
1401;BME280;46518;48.842;8.926;2023-02-28T12:39:26;97818.25;;;5.15;48.26
1401;BME280;46518;48.842;8.926;2023-02-28T12:42:00;97810.19;;;5.10;47.72
1401;BME280;46518;48.842;8.926;2023-02-28T12:44:32;97813.84;;;5.15;48.72
1401;BME280;46518;48.842;8.926;2023-02-28T12:47:04;97811.63;;;5.19;48.25
1401;BME280;46518;48.842;8.926;2023-02-28T12:49:38;97806.09;;;5.35;48.03
1401;BME280;46518;48.842;8.926;2023-02-28T12:52:07;97801.56;;;5.64;47.88
1401;BME280;46518;48.842;8.926;2023-02-28T12:54:44;97803.22;;;5.78;47.95
1401;BME280;46518;48.842;8.926;2023-02-28T12:57:22;97800.19;;;5.68;47.11
1401;BME280;46518;48.842;8.926;2023-02-28T12:59:56;97793.75;;;5.71;47.31
1401;BME280;46518;48.842;8.926;2023-02-28T13:05:47;97797.38;;;5.76;46.57
1401;BME280;46518;48.842;8.926;2023-02-28T13:11:29;97798.94;;;5.64;46.09
1401;BME280;46518;48.842;8.926;2023-02-28T13:14:02;97789.31;;;5.58;45.96
1401;BME280;46518;48.842;8.926;2023-02-28T13:16:51;97787.91;;;5.55;46.37
1401;BME280;46518;48.842;8.926;2023-02-28T13:19:22;97791.13;;;5.57;46.56
1401;BME280;46518;48.842;8.926;2023-02-28T13:21:51;97786.50;;;5.59;46.65
1401;BME280;46518;48.842;8.926;2023-02-28T13:24:40;97786.91;;;5.63;46.59
1401;BME280;46518;48.842;8.926;2023-02-28T13:27:36;97786.31;;;5.68;46.32
1401;BME280;46518;48.842;8.926;2023-02-28T13:33:27;97790.75;;;5.74;46.24
1401;BME280;46518;48.842;8.926;2023-02-28T13:36:24;97783.56;;;5.89;46.19
1401;BME280;46518;48.842;8.926;2023-02-28T13:38:54;97787.84;;;5.97;46.39
1401;BME280;46518;48.842;8.926;2023-02-28T13:41:47;97790.19;;;5.85;45.92
1401;BME280;46518;48.842;8.926;2023-02-28T13:44:17;97784.97;;;5.85;45.67
1401;BME280;46518;48.842;8.926;2023-02-28T13:47:19;97777.78;;;6.07;46.11
1401;BME280;46518;48.842;8.926;2023-02-28T13:49:52;97782.81;;;6.09;45.43
1401;BME280;46518;48.842;8.926;2023-02-28T13:52:23;97799.09;;;6.24;45.78
1401;BME280;46518;48.842;8.926;2023-02-28T13:55:16;97792.25;;;6.36;46.00
1401;BME280;46518;48.842;8.926;2023-02-28T13:57:58;97793.88;;;6.57;46.02
1401;BME280;46518;48.842;8.926;2023-02-28T14:00:37;97789.84;;;6.68;45.66
1401;BME280;46518;48.842;8.926;2023-02-28T14:03:23;97779.97;;;6.77;44.98
1401;BME280;46518;48.842;8.926;2023-02-28T14:06:23;97790.03;;;6.73;44.72